MiSS Stacie — WDF5915 — position and weather

sailwx.info

Track history (hours):
 
Tides and Currents Weather Stations Pressure Air Temp Water Temp Dewpoint Dewpoint Depression Visibility Wind Speed Wind Dir Waves Ship Positions

MiSS Stacie

Owner: Crosby Marine Transportation LLC, Golden Meadow, LA. More information available from US FCC via Universal Licensing System and Coast Guard Vessel Documentation Center.

Last reported at 2015-Feb-26 13:27 UTC. Time now 2015-Feb-28 13:56 UTC.
Position N 29°40' W 090°12'.

Length 20 m; draft 2 m.

Type: Tug. MMSI: 367468640.

Date/timePositionNaut miles runAvg speedWind from/ knotsBaromVisibWave heightAir tempDewpointWater temp
2015-Feb-26 13:27N 29°40' W 090°12'40 3.7
2015-Feb-26 02:33N 29°36' W 090°58'6 5.7
2015-Feb-26 01:33N 29°38' W 091°05'5 4.8
2015-Feb-26 00:33N 29°41' W 091°09'5 4.6
2015-Feb-25 23:33N 29°40' W 091°14'0 0.0
2015-Feb-25 22:33N 29°40' W 091°14'5 4.6
2015-Feb-25 21:33N 29°38' W 091°19'7 6.6
2015-Feb-25 20:31N 29°40' W 091°27'6 5.8
2015-Feb-25 19:30N 29°43' W 091°33'5 0.2
2015-Feb-25 00:05N 29°41' W 091°28'4 7.9
2015-Feb-24 23:33N 29°39' W 091°24'7 7.4
2015-Feb-24 22:33N 29°39' W 091°15'1 1.4
2015-Feb-24 21:33N 29°40' W 091°14'0 0.1
2015-Feb-24 20:33N 29°40' W 091°14'6 5.6
2015-Feb-24 19:33N 29°38' W 091°20'6 5.6
2015-Feb-24 18:32N 29°40' W 091°26'5 5.2
2015-Feb-24 17:33N 29°42' W 091°32'2 0.3
2015-Feb-24 11:14N 29°44' W 091°33'5 7.6
2015-Feb-24 10:31N 29°41' W 091°28'4 3.8
2015-Feb-24 09:33N 29°39' W 091°24'6 6.4
2015-Feb-24 08:33N 29°39' W 091°17'3 3.2
2015-Feb-24 07:33N 29°40' W 091°14'0 0.0
2015-Feb-24 06:33N 29°40' W 091°14'0 0.0
2015-Feb-24 05:33N 29°40' W 091°14'0 0.0
2015-Feb-24 04:33N 29°40' W 091°14'0 0.0
2015-Feb-24 03:33N 29°40' W 091°14'0 0.0
2015-Feb-24 02:33N 29°40' W 091°14'0 0.0
2015-Feb-24 01:33N 29°40' W 091°14'0 0.0
2015-Feb-24 00:33N 29°40' W 091°14'0 0.0
2015-Feb-23 23:33N 29°40' W 091°14'0 0.0
2015-Feb-23 22:33N 29°40' W 091°14'0 0.0
2015-Feb-23 21:33N 29°40' W 091°14'0 0.0
2015-Feb-23 20:33N 29°40' W 091°14'0 0.0
2015-Feb-23 19:33N 29°40' W 091°14'0 0.0
2015-Feb-23 18:33N 29°40' W 091°14'0 0.0
2015-Feb-23 17:33N 29°40' W 091°14'0 0.0
2015-Feb-23 16:33N 29°40' W 091°14'0 0.0
2015-Feb-23 15:33N 29°40' W 091°14'0 0.0
2015-Feb-23 14:33N 29°40' W 091°14'0 0.0
2015-Feb-23 13:33N 29°40' W 091°14'0 0.0
2015-Feb-23 12:33N 29°40' W 091°14'0 0.0
2015-Feb-23 11:33N 29°40' W 091°14'0 0.0
2015-Feb-23 10:33N 29°40' W 091°14'0 0.0
2015-Feb-23 09:33N 29°40' W 091°14'0 0.0
2015-Feb-23 08:33N 29°40' W 091°14'0 0.0
2015-Feb-23 07:33N 29°40' W 091°14'0 0.0
2015-Feb-23 06:33N 29°40' W 091°14'0 0.0
2015-Feb-23 05:33N 29°40' W 091°14'0 0.0
2015-Feb-23 04:33N 29°40' W 091°14'0 0.0
2015-Feb-23 03:33N 29°40' W 091°14'0 0.0
2015-Feb-23 02:33N 29°40' W 091°14'0 0.0
2015-Feb-23 01:33N 29°40' W 091°14'0 0.0
2015-Feb-23 00:33N 29°40' W 091°14'0 0.0
2015-Feb-22 23:33N 29°40' W 091°14'0 0.0
2015-Feb-22 22:33N 29°40' W 091°14'0 0.0
2015-Feb-22 21:33N 29°40' W 091°14'0 0.0
2015-Feb-22 20:33N 29°40' W 091°14'0 0.0
2015-Feb-22 19:33N 29°40' W 091°14'0 0.0
2015-Feb-22 18:33N 29°40' W 091°14'0 0.0
2015-Feb-22 17:33N 29°40' W 091°14'0 0.0
2015-Feb-22 16:33N 29°40' W 091°14'0 0.0
2015-Feb-22 15:33N 29°40' W 091°14'0 0.0
2015-Feb-22 14:33N 29°40' W 091°14'0 0.0
2015-Feb-22 13:33N 29°40' W 091°14'0 0.0
2015-Feb-22 12:33N 29°40' W 091°14'0 0.0
2015-Feb-22 11:33N 29°40' W 091°14'0 0.0
2015-Feb-22 10:33N 29°40' W 091°14'0 0.0
2015-Feb-22 09:33N 29°40' W 091°14'0 0.0
2015-Feb-22 08:33N 29°40' W 091°14'0 0.0
2015-Feb-22 07:33N 29°40' W 091°14'0 0.0
2015-Feb-22 06:33N 29°40' W 091°14'0 0.0
2015-Feb-22 05:33N 29°40' W 091°14'0 0.0
2015-Feb-22 04:33N 29°40' W 091°14'0 0.0
2015-Feb-22 03:33N 29°40' W 091°14'0 0.0
2015-Feb-22 02:33N 29°40' W 091°14'0 0.0
2015-Feb-22 01:33N 29°40' W 091°14'0 0.0
2015-Feb-22 00:33N 29°40' W 091°14'0 0.0
2015-Feb-21 23:33N 29°40' W 091°14'0 0.0
2015-Feb-21 22:33N 29°40' W 091°14'0 0.0
2015-Feb-21 21:33N 29°40' W 091°14'0 0.0
2015-Feb-21 20:33N 29°40' W 091°14'0 0.0
2015-Feb-21 19:33N 29°40' W 091°14'0 0.0
2015-Feb-21 18:33N 29°40' W 091°14'0 0.0
2015-Feb-21 17:33N 29°40' W 091°14'0 0.0
2015-Feb-21 16:33N 29°40' W 091°14'0 0.0
2015-Feb-21 15:33N 29°40' W 091°14'0 0.0
2015-Feb-21 14:33N 29°40' W 091°14'0 0.0
2015-Feb-21 13:33N 29°40' W 091°14'0 0.0
2015-Feb-21 12:33N 29°40' W 091°14'0 0.0
2015-Feb-21 11:33N 29°40' W 091°14'0 0.0
2015-Feb-21 10:33N 29°40' W 091°14'0 0.0
2015-Feb-21 09:33N 29°40' W 091°14'0 0.0
2015-Feb-21 08:33N 29°40' W 091°14'0 0.0
2015-Feb-21 07:33N 29°40' W 091°14'0 0.0
2015-Feb-21 06:33N 29°40' W 091°14'0 0.0
2015-Feb-21 05:33N 29°40' W 091°14'0 0.0
2015-Feb-21 04:33N 29°40' W 091°14'0 0.0
2015-Feb-21 03:33N 29°40' W 091°14'0 0.0
2015-Feb-21 02:33N 29°40' W 091°14'0 0.0
2015-Feb-21 01:33N 29°40' W 091°14'0 0.0
2015-Feb-21 00:33N 29°40' W 091°14'0 0.0
2015-Feb-20 23:33N 29°40' W 091°14'0 0.0
2015-Feb-20 22:33N 29°40' W 091°14'0 0.0
2015-Feb-20 21:33N 29°40' W 091°14'0 0.0
2015-Feb-20 20:33N 29°40' W 091°14'0 0.0
2015-Feb-20 19:33N 29°40' W 091°14'0 0.0
2015-Feb-20 18:33N 29°40' W 091°14'0 0.0
2015-Feb-20 17:33N 29°40' W 091°14'0 0.0
2015-Feb-20 16:33N 29°40' W 091°14'0 0.0
2015-Feb-20 15:33N 29°40' W 091°14'0 0.0
2015-Feb-20 14:33N 29°40' W 091°14'0 0.0
2015-Feb-20 13:33N 29°40' W 091°14'0 0.0
2015-Feb-20 12:33N 29°40' W 091°14'0 0.0
2015-Feb-20 11:33N 29°40' W 091°14'0 0.0
2015-Feb-20 10:33N 29°40' W 091°14'0 0.0
2015-Feb-20 09:33N 29°40' W 091°14'0 0.0
2015-Feb-20 08:33N 29°40' W 091°14'0 0.0
2015-Feb-20 07:33N 29°40' W 091°14'0 0.0
2015-Feb-20 06:33N 29°40' W 091°14'0 0.0
2015-Feb-20 05:33N 29°40' W 091°14'0 0.0
2015-Feb-20 04:33N 29°40' W 091°14'0 0.0
2015-Feb-20 03:33N 29°40' W 091°14'0 0.0
2015-Feb-20 02:33N 29°40' W 091°14'0 0.0
2015-Feb-20 01:33N 29°40' W 091°14'0 0.0
2015-Feb-20 00:33N 29°40' W 091°14'0 0.0
2015-Feb-19 23:33N 29°40' W 091°14'0 0.0
2015-Feb-19 22:33N 29°40' W 091°14'0 0.0
2015-Feb-19 21:33N 29°40' W 091°14'0 0.0
2015-Feb-19 20:33N 29°40' W 091°14'0 0.0
2015-Feb-19 19:33N 29°40' W 091°14'0 0.0
2015-Feb-19 18:33N 29°40' W 091°14'0 0.0
2015-Feb-19 17:33N 29°40' W 091°14'0 0.0
2015-Feb-19 16:33N 29°40' W 091°14'0 0.0
2015-Feb-19 15:33N 29°40' W 091°14'0 0.0
2015-Feb-19 14:33N 29°40' W 091°14'0 0.0
2015-Feb-19 13:33N 29°40' W 091°14'0 0.0
2015-Feb-19 12:33N 29°40' W 091°14'0 0.0
2015-Feb-19 11:33N 29°40' W 091°14'0 0.0
2015-Feb-19 10:33N 29°40' W 091°14'0 0.0
2015-Feb-19 09:33N 29°40' W 091°14'0 0.0
2015-Feb-19 08:33N 29°40' W 091°14'0 0.0
2015-Feb-19 07:33N 29°40' W 091°14'0 0.0
2015-Feb-19 06:33N 29°40' W 091°14'0 0.0
2015-Feb-19 05:33N 29°40' W 091°14'0 0.0
2015-Feb-19 04:33N 29°40' W 091°14'0 0.0
2015-Feb-19 03:33N 29°40' W 091°14'0 0.0
2015-Feb-19 02:33N 29°40' W 091°14'0 0.0
2015-Feb-19 01:33N 29°40' W 091°14'0 0.0
2015-Feb-19 00:33N 29°40' W 091°14'0 0.0
2015-Feb-18 23:33N 29°40' W 091°14'0 0.0
2015-Feb-18 22:33N 29°40' W 091°14'0 0.0
2015-Feb-18 21:33N 29°40' W 091°14'0 0.0
2015-Feb-18 20:33N 29°40' W 091°14'0 0.0
2015-Feb-18 19:33N 29°40' W 091°14'0 0.0
2015-Feb-18 18:33N 29°40' W 091°14'0 0.0
2015-Feb-18 17:33N 29°40' W 091°14'0 0.0
2015-Feb-18 16:33N 29°40' W 091°14'0 0.0
2015-Feb-18 15:33N 29°40' W 091°14'0 0.0
2015-Feb-18 14:33N 29°40' W 091°14'0 0.0
2015-Feb-18 13:33N 29°40' W 091°14'0 0.0
2015-Feb-18 12:33N 29°40' W 091°14'0 0.0
2015-Feb-18 11:33N 29°40' W 091°14'0 0.0
2015-Feb-18 10:33N 29°40' W 091°14'0 0.0
2015-Feb-18 09:33N 29°40' W 091°14'0 0.0
2015-Feb-18 08:33N 29°40' W 091°14'0 0.0
2015-Feb-18 07:33N 29°40' W 091°14'0 0.0
2015-Feb-18 06:33N 29°40' W 091°14'0 0.0
2015-Feb-18 05:33N 29°40' W 091°14'0 0.0
2015-Feb-18 04:33N 29°40' W 091°14'0 0.0
2015-Feb-18 03:33N 29°40' W 091°14'0 0.0
2015-Feb-18 02:33N 29°40' W 091°14'0 0.0
2015-Feb-18 01:33N 29°40' W 091°14'0 0.0
2015-Feb-18 00:33N 29°40' W 091°14'0 0.0
2015-Feb-17 23:33N 29°40' W 091°14'0 0.0
2015-Feb-17 22:33N 29°40' W 091°14'0 0.0
2015-Feb-17 21:33N 29°40' W 091°14'0 0.0
2015-Feb-17 20:33N 29°40' W 091°14'0 0.0
2015-Feb-17 19:34N 29°40' W 091°14'0 0.0
2015-Feb-17 17:33N 29°40' W 091°14'0 0.0
2015-Feb-17 16:33N 29°40' W 091°14'0 0.0
2015-Feb-17 15:33N 29°40' W 091°14'0 0.0
2015-Feb-17 14:33N 29°40' W 091°14'0 0.0
2015-Feb-17 13:33N 29°40' W 091°14'0 0.0
2015-Feb-17 12:33N 29°40' W 091°14'0 0.0
2015-Feb-17 11:33N 29°40' W 091°14'0 0.0
2015-Feb-17 10:33N 29°40' W 091°14'0 0.0
2015-Feb-17 09:33N 29°40' W 091°14'0 0.0
2015-Feb-17 08:33N 29°40' W 091°14'0 0.0
2015-Feb-17 07:33N 29°40' W 091°14'0 0.0
2015-Feb-17 06:33N 29°40' W 091°14'0 0.0
2015-Feb-17 05:33N 29°40' W 091°14'0 0.0
2015-Feb-17 04:33N 29°40' W 091°14'0 0.0
2015-Feb-17 03:33N 29°40' W 091°14'0 0.0
2015-Feb-17 02:33N 29°40' W 091°14'0 0.0
2015-Feb-17 01:33N 29°40' W 091°14'0 0.0
2015-Feb-17 00:33N 29°40' W 091°14'0 0.0
2015-Feb-16 23:33N 29°40' W 091°14'0 0.0
2015-Feb-16 22:33N 29°40' W 091°14'0 0.0
2015-Feb-16 21:33N 29°40' W 091°14'0 0.0
2015-Feb-16 20:33N 29°40' W 091°14'0 0.0
2015-Feb-16 19:33N 29°40' W 091°14'0 0.0
2015-Feb-16 18:33N 29°40' W 091°14'0 0.0
2015-Feb-16 17:33N 29°40' W 091°14'0 0.0
2015-Feb-16 16:33N 29°40' W 091°14'0 0.0
2015-Feb-16 15:33N 29°40' W 091°14'0 0.0
2015-Feb-16 14:33N 29°40' W 091°14'0 0.0
2015-Feb-16 13:33N 29°40' W 091°14'  
Track history (hours):
 
Tides and Currents Weather Stations Pressure Air Temp Water Temp Dewpoint Dewpoint Depression Visibility Wind Speed Wind Dir Waves Ship Positions

MiSS Stacie

Owner: Crosby Marine Transportation LLC, Golden Meadow, LA. More information available from US FCC via Universal Licensing System and Coast Guard Vessel Documentation Center.

Last reported at 2015-Feb-26 13:27 UTC. Time now 2015-Feb-28 13:56 UTC.
Position N 29°40' W 090°12'.

Length 20 m; draft 2 m.

Type: Tug. MMSI: 367468640.

Date/timePositionNaut miles runAvg speedWind from/ knotsBaromVisibWave heightAir tempDewpointWater temp
2015-Feb-26 13:27N 29°40' W 090°12'40 3.7
2015-Feb-26 02:33N 29°36' W 090°58'6 5.7
2015-Feb-26 01:33N 29°38' W 091°05'5 4.8
2015-Feb-26 00:33N 29°41' W 091°09'5 4.6
2015-Feb-25 23:33N 29°40' W 091°14'0 0.0
2015-Feb-25 22:33N 29°40' W 091°14'5 4.6
2015-Feb-25 21:33N 29°38' W 091°19'7 6.6
2015-Feb-25 20:31N 29°40' W 091°27'6 5.8
2015-Feb-25 19:30N 29°43' W 091°33'5 0.2
2015-Feb-25 00:05N 29°41' W 091°28'4 7.9
2015-Feb-24 23:33N 29°39' W 091°24'7 7.4
2015-Feb-24 22:33N 29°39' W 091°15'1 1.4
2015-Feb-24 21:33N 29°40' W 091°14'0 0.1
2015-Feb-24 20:33N 29°40' W 091°14'6 5.6
2015-Feb-24 19:33N 29°38' W 091°20'6 5.6
2015-Feb-24 18:32N 29°40' W 091°26'5 5.2
2015-Feb-24 17:33N 29°42' W 091°32'2 0.3
2015-Feb-24 11:14N 29°44' W 091°33'5 7.6
2015-Feb-24 10:31N 29°41' W 091°28'4 3.8
2015-Feb-24 09:33N 29°39' W 091°24'6 6.4
2015-Feb-24 08:33N 29°39' W 091°17'3 3.2
2015-Feb-24 07:33N 29°40' W 091°14'0 0.0
2015-Feb-24 06:33N 29°40' W 091°14'0 0.0
2015-Feb-24 05:33N 29°40' W 091°14'0 0.0
2015-Feb-24 04:33N 29°40' W 091°14'0 0.0
2015-Feb-24 03:33N 29°40' W 091°14'0 0.0
2015-Feb-24 02:33N 29°40' W 091°14'0 0.0
2015-Feb-24 01:33N 29°40' W 091°14'0 0.0
2015-Feb-24 00:33N 29°40' W 091°14'0 0.0
2015-Feb-23 23:33N 29°40' W 091°14'0 0.0
2015-Feb-23 22:33N 29°40' W 091°14'0 0.0
2015-Feb-23 21:33N 29°40' W 091°14'0 0.0
2015-Feb-23 20:33N 29°40' W 091°14'0 0.0
2015-Feb-23 19:33N 29°40' W 091°14'0 0.0
2015-Feb-23 18:33N 29°40' W 091°14'0 0.0
2015-Feb-23 17:33N 29°40' W 091°14'0 0.0
2015-Feb-23 16:33N 29°40' W 091°14'0 0.0
2015-Feb-23 15:33N 29°40' W 091°14'0 0.0
2015-Feb-23 14:33N 29°40' W 091°14'0 0.0
2015-Feb-23 13:33N 29°40' W 091°14'0 0.0
2015-Feb-23 12:33N 29°40' W 091°14'0 0.0
2015-Feb-23 11:33N 29°40' W 091°14'0 0.0
2015-Feb-23 10:33N 29°40' W 091°14'0 0.0
2015-Feb-23 09:33N 29°40' W 091°14'0 0.0
2015-Feb-23 08:33N 29°40' W 091°14'0 0.0
2015-Feb-23 07:33N 29°40' W 091°14'0 0.0
2015-Feb-23 06:33N 29°40' W 091°14'0 0.0
2015-Feb-23 05:33N 29°40' W 091°14'0 0.0
2015-Feb-23 04:33N 29°40' W 091°14'0 0.0
2015-Feb-23 03:33N 29°40' W 091°14'0 0.0
2015-Feb-23 02:33N 29°40' W 091°14'0 0.0
2015-Feb-23 01:33N 29°40' W 091°14'0 0.0
2015-Feb-23 00:33N 29°40' W 091°14'0 0.0
2015-Feb-22 23:33N 29°40' W 091°14'0 0.0
2015-Feb-22 22:33N 29°40' W 091°14'0 0.0
2015-Feb-22 21:33N 29°40' W 091°14'0 0.0
2015-Feb-22 20:33N 29°40' W 091°14'0 0.0
2015-Feb-22 19:33N 29°40' W 091°14'0 0.0
2015-Feb-22 18:33N 29°40' W 091°14'0 0.0
2015-Feb-22 17:33N 29°40' W 091°14'0 0.0
2015-Feb-22 16:33N 29°40' W 091°14'0 0.0
2015-Feb-22 15:33N 29°40' W 091°14'0 0.0
2015-Feb-22 14:33N 29°40' W 091°14'0 0.0
2015-Feb-22 13:33N 29°40' W 091°14'0 0.0
2015-Feb-22 12:33N 29°40' W 091°14'0 0.0
2015-Feb-22 11:33N 29°40' W 091°14'0 0.0
2015-Feb-22 10:33N 29°40' W 091°14'0 0.0
2015-Feb-22 09:33N 29°40' W 091°14'0 0.0
2015-Feb-22 08:33N 29°40' W 091°14'0 0.0
2015-Feb-22 07:33N 29°40' W 091°14'0 0.0
2015-Feb-22 06:33N 29°40' W 091°14'0 0.0
2015-Feb-22 05:33N 29°40' W 091°14'0 0.0
2015-Feb-22 04:33N 29°40' W 091°14'0 0.0
2015-Feb-22 03:33N 29°40' W 091°14'0 0.0
2015-Feb-22 02:33N 29°40' W 091°14'0 0.0
2015-Feb-22 01:33N 29°40' W 091°14'0 0.0
2015-Feb-22 00:33N 29°40' W 091°14'0 0.0
2015-Feb-21 23:33N 29°40' W 091°14'0 0.0
2015-Feb-21 22:33N 29°40' W 091°14'0 0.0
2015-Feb-21 21:33N 29°40' W 091°14'0 0.0
2015-Feb-21 20:33N 29°40' W 091°14'0 0.0
2015-Feb-21 19:33N 29°40' W 091°14'0 0.0
2015-Feb-21 18:33N 29°40' W 091°14'0 0.0
2015-Feb-21 17:33N 29°40' W 091°14'0 0.0
2015-Feb-21 16:33N 29°40' W 091°14'0 0.0
2015-Feb-21 15:33N 29°40' W 091°14'0 0.0
2015-Feb-21 14:33N 29°40' W 091°14'0 0.0
2015-Feb-21 13:33N 29°40' W 091°14'0 0.0
2015-Feb-21 12:33N 29°40' W 091°14'0 0.0
2015-Feb-21 11:33N 29°40' W 091°14'0 0.0
2015-Feb-21 10:33N 29°40' W 091°14'0 0.0
2015-Feb-21 09:33N 29°40' W 091°14'0 0.0
2015-Feb-21 08:33N 29°40' W 091°14'0 0.0
2015-Feb-21 07:33N 29°40' W 091°14'0 0.0
2015-Feb-21 06:33N 29°40' W 091°14'0 0.0
2015-Feb-21 05:33N 29°40' W 091°14'0 0.0
2015-Feb-21 04:33N 29°40' W 091°14'0 0.0
2015-Feb-21 03:33N 29°40' W 091°14'0 0.0
2015-Feb-21 02:33N 29°40' W 091°14'0 0.0
2015-Feb-21 01:33N 29°40' W 091°14'0 0.0
2015-Feb-21 00:33N 29°40' W 091°14'0 0.0
2015-Feb-20 23:33N 29°40' W 091°14'0 0.0
2015-Feb-20 22:33N 29°40' W 091°14'0 0.0
2015-Feb-20 21:33N 29°40' W 091°14'0 0.0
2015-Feb-20 20:33N 29°40' W 091°14'0 0.0
2015-Feb-20 19:33N 29°40' W 091°14'0 0.0
2015-Feb-20 18:33N 29°40' W 091°14'0 0.0
2015-Feb-20 17:33N 29°40' W 091°14'0 0.0
2015-Feb-20 16:33N 29°40' W 091°14'0 0.0
2015-Feb-20 15:33N 29°40' W 091°14'0 0.0
2015-Feb-20 14:33N 29°40' W 091°14'0 0.0
2015-Feb-20 13:33N 29°40' W 091°14'0 0.0
2015-Feb-20 12:33N 29°40' W 091°14'0 0.0
2015-Feb-20 11:33N 29°40' W 091°14'0 0.0
2015-Feb-20 10:33N 29°40' W 091°14'0 0.0
2015-Feb-20 09:33N 29°40' W 091°14'0 0.0
2015-Feb-20 08:33N 29°40' W 091°14'0 0.0
2015-Feb-20 07:33N 29°40' W 091°14'0 0.0
2015-Feb-20 06:33N 29°40' W 091°14'0 0.0
2015-Feb-20 05:33N 29°40' W 091°14'0 0.0
2015-Feb-20 04:33N 29°40' W 091°14'0 0.0
2015-Feb-20 03:33N 29°40' W 091°14'0 0.0
2015-Feb-20 02:33N 29°40' W 091°14'0 0.0
2015-Feb-20 01:33N 29°40' W 091°14'0 0.0
2015-Feb-20 00:33N 29°40' W 091°14'0 0.0
2015-Feb-19 23:33N 29°40' W 091°14'0 0.0
2015-Feb-19 22:33N 29°40' W 091°14'0 0.0
2015-Feb-19 21:33N 29°40' W 091°14'0 0.0
2015-Feb-19 20:33N 29°40' W 091°14'0 0.0
2015-Feb-19 19:33N 29°40' W 091°14'0 0.0
2015-Feb-19 18:33N 29°40' W 091°14'0 0.0
2015-Feb-19 17:33N 29°40' W 091°14'0 0.0
2015-Feb-19 16:33N 29°40' W 091°14'0 0.0
2015-Feb-19 15:33N 29°40' W 091°14'0 0.0
2015-Feb-19 14:33N 29°40' W 091°14'0 0.0
2015-Feb-19 13:33N 29°40' W 091°14'0 0.0
2015-Feb-19 12:33N 29°40' W 091°14'0 0.0
2015-Feb-19 11:33N 29°40' W 091°14'0 0.0
2015-Feb-19 10:33N 29°40' W 091°14'0 0.0
2015-Feb-19 09:33N 29°40' W 091°14'0 0.0
2015-Feb-19 08:33N 29°40' W 091°14'0 0.0
2015-Feb-19 07:33N 29°40' W 091°14'0 0.0
2015-Feb-19 06:33N 29°40' W 091°14'0 0.0
2015-Feb-19 05:33N 29°40' W 091°14'0 0.0
2015-Feb-19 04:33N 29°40' W 091°14'0 0.0
2015-Feb-19 03:33N 29°40' W 091°14'0 0.0
2015-Feb-19 02:33N 29°40' W 091°14'0 0.0
2015-Feb-19 01:33N 29°40' W 091°14'0 0.0
2015-Feb-19 00:33N 29°40' W 091°14'0 0.0
2015-Feb-18 23:33N 29°40' W 091°14'0 0.0
2015-Feb-18 22:33N 29°40' W 091°14'0 0.0
2015-Feb-18 21:33N 29°40' W 091°14'0 0.0
2015-Feb-18 20:33N 29°40' W 091°14'0 0.0
2015-Feb-18 19:33N 29°40' W 091°14'0 0.0
2015-Feb-18 18:33N 29°40' W 091°14'0 0.0
2015-Feb-18 17:33N 29°40' W 091°14'0 0.0
2015-Feb-18 16:33N 29°40' W 091°14'0 0.0
2015-Feb-18 15:33N 29°40' W 091°14'0 0.0
2015-Feb-18 14:33N 29°40' W 091°14'0 0.0
2015-Feb-18 13:33N 29°40' W 091°14'0 0.0
2015-Feb-18 12:33N 29°40' W 091°14'0 0.0
2015-Feb-18 11:33N 29°40' W 091°14'0 0.0
2015-Feb-18 10:33N 29°40' W 091°14'0 0.0
2015-Feb-18 09:33N 29°40' W 091°14'0 0.0
2015-Feb-18 08:33N 29°40' W 091°14'0 0.0
2015-Feb-18 07:33N 29°40' W 091°14'0 0.0
2015-Feb-18 06:33N 29°40' W 091°14'0 0.0
2015-Feb-18 05:33N 29°40' W 091°14'0 0.0
2015-Feb-18 04:33N 29°40' W 091°14'0 0.0
2015-Feb-18 03:33N 29°40' W 091°14'0 0.0
2015-Feb-18 02:33N 29°40' W 091°14'0 0.0
2015-Feb-18 01:33N 29°40' W 091°14'0 0.0
2015-Feb-18 00:33N 29°40' W 091°14'0 0.0
2015-Feb-17 23:33N 29°40' W 091°14'0 0.0
2015-Feb-17 22:33N 29°40' W 091°14'0 0.0
2015-Feb-17 21:33N 29°40' W 091°14'0 0.0
2015-Feb-17 20:33N 29°40' W 091°14'0 0.0
2015-Feb-17 19:34N 29°40' W 091°14'0 0.0
2015-Feb-17 17:33N 29°40' W 091°14'0 0.0
2015-Feb-17 16:33N 29°40' W 091°14'0 0.0
2015-Feb-17 15:33N 29°40' W 091°14'0 0.0
2015-Feb-17 14:33N 29°40' W 091°14'0 0.0
2015-Feb-17 13:33N 29°40' W 091°14'0 0.0
2015-Feb-17 12:33N 29°40' W 091°14'0 0.0
2015-Feb-17 11:33N 29°40' W 091°14'0 0.0
2015-Feb-17 10:33N 29°40' W 091°14'0 0.0
2015-Feb-17 09:33N 29°40' W 091°14'0 0.0
2015-Feb-17 08:33N 29°40' W 091°14'0 0.0
2015-Feb-17 07:33N 29°40' W 091°14'0 0.0
2015-Feb-17 06:33N 29°40' W 091°14'0 0.0
2015-Feb-17 05:33N 29°40' W 091°14'0 0.0
2015-Feb-17 04:33N 29°40' W 091°14'0 0.0
2015-Feb-17 03:33N 29°40' W 091°14'0 0.0
2015-Feb-17 02:33N 29°40' W 091°14'0 0.0
2015-Feb-17 01:33N 29°40' W 091°14'0 0.0
2015-Feb-17 00:33N 29°40' W 091°14'0 0.0
2015-Feb-16 23:33N 29°40' W 091°14'0 0.0
2015-Feb-16 22:33N 29°40' W 091°14'0 0.0
2015-Feb-16 21:33N 29°40' W 091°14'0 0.0
2015-Feb-16 20:33N 29°40' W 091°14'0 0.0
2015-Feb-16 19:33N 29°40' W 091°14'0 0.0
2015-Feb-16 18:33N 29°40' W 091°14'0 0.0
2015-Feb-16 17:33N 29°40' W 091°14'0 0.0
2015-Feb-16 16:33N 29°40' W 091°14'0 0.0
2015-Feb-16 15:33N 29°40' W 091°14'0 0.0
2015-Feb-16 14:33N 29°40' W 091°14'0 0.0
2015-Feb-16 13:33N 29°40' W 091°14'  

Dump ship's entire track history